createdAt,value
2018-03-11T00:02:24.550Z,92.80
2018-03-11T00:04:58.354Z,92.80
2018-03-11T00:07:32.136Z,93.00
2018-03-11T00:10:05.870Z,92.90
2018-03-11T00:12:39.541Z,92.90
2018-03-11T00:15:14.122Z,92.80
2018-03-11T00:17:47.766Z,92.90
2018-03-11T00:20:21.357Z,92.70
2018-03-11T00:22:55.099Z,92.90
2018-03-11T00:25:28.736Z,92.90
2018-03-11T00:28:02.478Z,92.80
2018-03-11T00:30:37.102Z,92.90
2018-03-11T00:33:10.706Z,92.70
2018-03-11T00:35:44.441Z,92.70
2018-03-11T00:38:19.825Z,92.50
2018-03-11T00:40:53.546Z,92.50
2018-03-11T00:43:27.285Z,92.40
2018-03-11T00:46:01.073Z,92.40
2018-03-11T00:48:35.735Z,92.40
2018-03-11T00:51:09.606Z,92.50
2018-03-11T00:53:43.346Z,92.50
2018-03-11T00:56:17.868Z,92.50
2018-03-11T00:58:53.108Z,92.70
2018-03-11T01:01:27.196Z,92.70
2018-03-11T01:04:00.796Z,92.80
2018-03-11T01:06:34.622Z,92.70
2018-03-11T01:09:09.014Z,92.70
2018-03-11T01:11:43.156Z,92.60
2018-03-11T01:14:17.013Z,92.50
2018-03-11T01:16:50.866Z,92.40
2018-03-11T01:19:25.369Z,92.10
2018-03-11T01:22:00.028Z,92.10
2018-03-11T01:24:33.936Z,92.10
2018-03-11T01:27:07.629Z,92.30
2018-03-11T01:29:41.526Z,92.10
2018-03-11T01:32:15.317Z,92.00
2018-03-11T01:34:49.752Z,92.20
2018-03-11T01:37:24.245Z,92.30
2018-03-11T01:39:58.463Z,92.30
2018-03-11T01:42:32.952Z,92.30
2018-03-11T01:45:08.322Z,92.50
2018-03-11T01:47:42.164Z,92.50
2018-03-11T01:50:15.996Z,92.60
2018-03-11T01:53:01.618Z,92.80
2018-03-11T01:55:35.435Z,92.90
2018-03-11T01:58:09.505Z,92.90
2018-03-11T02:00:43.470Z,93.10
2018-03-11T02:03:17.312Z,92.90
2018-03-11T02:05:51.054Z,93.10
2018-03-11T02:08:24.798Z,93.20
2018-03-11T02:10:58.592Z,93.40
2018-03-11T02:13:32.406Z,93.50
2018-03-11T02:16:06.805Z,93.60
2018-03-11T02:18:40.632Z,93.60
2018-03-11T02:21:14.469Z,93.70
2018-03-11T02:23:48.179Z,94.10
2018-03-11T02:26:21.918Z,94.30
2018-03-11T02:28:56.402Z,94.60
2018-03-11T02:31:30.965Z,94.40
2018-03-11T02:34:05.919Z,94.90
2018-03-11T02:36:39.796Z,94.90
2018-03-11T02:39:14.464Z,95.10
2018-03-11T02:41:48.789Z,95.30
2018-03-11T02:44:22.572Z,95.50
2018-03-11T02:46:57.332Z,96.10
2018-03-11T02:49:31.918Z,96.20
2018-03-11T02:52:05.801Z,96.20
2018-03-11T02:54:39.462Z,96.10
2018-03-11T02:57:13.266Z,96.00
2018-03-11T02:59:47.828Z,95.50
2018-03-11T03:02:21.539Z,95.50
2018-03-11T03:04:56.116Z,95.20
2018-03-11T03:07:29.935Z,95.20
2018-03-11T03:10:03.706Z,95.20
2018-03-11T03:12:37.517Z,95.40
2018-03-11T03:15:11.184Z,95.80
2018-03-11T03:17:45.766Z,96.00
2018-03-11T03:20:20.374Z,96.30
2018-03-11T03:22:54.247Z,96.30
2018-03-11T03:25:27.888Z,96.50
2018-03-11T03:28:02.303Z,96.80
2018-03-11T03:30:36.110Z,96.80
2018-03-11T03:33:09.981Z,97.30
2018-03-11T03:35:43.850Z,97.60
2018-03-11T03:38:17.656Z,97.60
2018-03-11T03:40:51.406Z,97.80
2018-03-11T03:43:25.227Z,98.20
2018-03-11T03:45:58.945Z,98.10
2018-03-11T03:48:32.753Z,98.10
2018-03-11T03:51:06.560Z,98.10
2018-03-11T03:53:40.320Z,98.30
2018-03-11T03:56:14.037Z,97.90
2018-03-11T03:58:48.581Z,97.70
2018-03-11T04:01:22.463Z,97.70
2018-03-11T04:03:56.270Z,97.50
2018-03-11T04:06:30.120Z,97.20
2018-03-11T04:09:03.924Z,96.90
2018-03-11T04:11:37.647Z,96.90
2018-03-11T04:14:11.350Z,96.70
2018-03-11T04:16:45.089Z,96.70
2018-03-11T04:19:19.529Z,96.40
2018-03-11T04:21:53.336Z,96.30
2018-03-11T04:24:27.911Z,96.40
2018-03-11T04:27:01.668Z,96.40
2018-03-11T04:29:36.432Z,96.70
2018-03-11T04:32:10.304Z,96.80
2018-03-11T04:34:45.589Z,98.20
2018-03-11T04:37:19.860Z,98.20
2018-03-11T04:39:54.550Z,98.80
2018-03-11T04:42:28.356Z,98.80
2018-03-11T04:45:02.134Z,98.80
2018-03-11T04:47:35.873Z,99.10
2018-03-11T04:50:10.325Z,99.50
2018-03-11T04:52:45.009Z,99.90
2018-03-11T04:55:18.798Z,99.90
2018-03-11T04:57:52.550Z,99.90
2018-03-11T05:00:26.307Z,99.90
2018-03-11T05:03:00.819Z,99.90
2018-03-11T05:05:35.317Z,99.90
2018-03-11T05:08:09.231Z,99.90
2018-03-11T05:10:43.659Z,99.90
2018-03-11T05:13:17.410Z,99.90
2018-03-11T05:15:52.080Z,99.90
2018-03-11T05:18:25.807Z,99.90
2018-03-11T05:20:59.483Z,99.90
2018-03-11T05:23:33.248Z,99.90
2018-03-11T05:26:06.914Z,99.90
2018-03-11T05:28:40.720Z,99.90
2018-03-11T05:31:14.455Z,99.90
2018-03-11T05:33:48.056Z,99.90
2018-03-11T05:36:22.489Z,99.90
2018-03-11T05:38:57.217Z,99.90
2018-03-11T05:41:30.914Z,99.90
2018-03-11T05:44:04.776Z,99.90
2018-03-11T05:46:38.586Z,99.90
2018-03-11T05:49:14.091Z,99.90
2018-03-11T05:51:47.775Z,99.90
2018-03-11T05:54:21.547Z,99.90
2018-03-11T05:56:56.035Z,99.90
2018-03-11T05:59:29.720Z,99.90
2018-03-11T06:02:03.580Z,99.90
2018-03-11T06:04:37.990Z,99.90
2018-03-11T06:07:11.725Z,99.90
2018-03-11T06:09:45.533Z,99.90
2018-03-11T06:12:19.235Z,99.90
2018-03-11T06:14:52.958Z,99.90
2018-03-11T06:17:27.483Z,99.90
2018-03-11T06:20:02.025Z,99.90
2018-03-11T06:22:35.772Z,99.90
2018-03-11T06:25:09.508Z,99.90
2018-03-11T06:27:43.345Z,99.90
2018-03-11T06:30:16.994Z,99.90
2018-03-11T06:32:50.676Z,99.90
2018-03-11T06:35:25.080Z,99.90
2018-03-11T06:37:58.838Z,99.90
2018-03-11T06:40:33.372Z,99.90
2018-03-11T06:43:07.137Z,99.90
2018-03-11T06:45:41.553Z,99.90
2018-03-11T06:48:15.625Z,99.90
2018-03-11T06:50:49.476Z,99.90
2018-03-11T06:53:23.225Z,99.90
2018-03-11T06:55:58.081Z,99.80
2018-03-11T06:58:32.768Z,99.80
2018-03-11T07:01:06.565Z,99.60
2018-03-11T07:03:41.288Z,99.20
2018-03-11T07:06:15.902Z,99.20
2018-03-11T07:08:49.695Z,99.20
2018-03-11T07:11:24.488Z,98.90
2018-03-11T07:13:58.188Z,98.90
2018-03-11T07:16:32.077Z,98.50
2018-03-11T07:19:05.969Z,97.90
2018-03-11T07:21:39.748Z,97.80
2018-03-11T07:24:14.297Z,96.90
2018-03-11T07:26:48.268Z,96.90
2018-03-11T07:29:22.110Z,96.40
2018-03-11T07:31:55.882Z,95.90
2018-03-11T07:34:29.517Z,95.30
2018-03-11T07:37:03.266Z,95.10
2018-03-11T07:39:37.897Z,94.60
2018-03-11T07:42:11.520Z,94.00
2018-03-11T07:44:45.531Z,93.60
2018-03-11T07:47:19.254Z,93.30
2018-03-11T07:49:52.908Z,92.90
2018-03-11T07:52:26.736Z,92.50
2018-03-11T07:55:00.461Z,92.10
2018-03-11T07:57:34.187Z,91.60
2018-03-11T08:00:08.035Z,91.90
2018-03-11T08:02:43.150Z,91.20
2018-03-11T08:05:17.865Z,90.40
2018-03-11T08:07:53.898Z,90.20
2018-03-11T08:10:27.685Z,89.50
2018-03-11T08:13:02.843Z,88.10
2018-03-11T08:15:37.490Z,86.90
2018-03-11T08:18:11.117Z,86.30
2018-03-11T08:20:46.335Z,84.10
2018-03-11T08:23:21.364Z,82.90
2018-03-11T08:25:56.517Z,82.80
2018-03-11T08:28:30.660Z,80.80
2018-03-11T08:31:05.434Z,79.10
2018-03-11T08:33:39.479Z,77.60
2018-03-11T08:36:13.917Z,75.10
2018-03-11T08:38:47.813Z,75.70
2018-03-11T08:41:21.895Z,73.20
2018-03-11T08:43:55.767Z,72.40
2018-03-11T08:46:30.973Z,71.80
2018-03-11T08:49:05.383Z,71.00
2018-03-11T08:51:43.567Z,71.70
2018-03-11T08:54:17.654Z,72.30
2018-03-11T08:56:52.106Z,71.20
2018-03-11T08:59:25.935Z,71.40
2018-03-11T09:02:00.409Z,71.20
2018-03-11T09:04:34.224Z,69.20
2018-03-11T09:07:08.005Z,66.90
2018-03-11T09:09:41.754Z,66.80
2018-03-11T09:12:16.514Z,65.80
2018-03-11T09:14:50.250Z,64.50
2018-03-11T09:17:24.001Z,63.60
2018-03-11T09:19:57.872Z,63.80
2018-03-11T09:22:31.556Z,62.80
2018-03-11T09:25:05.170Z,62.80
2018-03-11T09:27:39.056Z,61.70
2018-03-11T09:30:12.866Z,61.90
2018-03-11T09:32:46.542Z,61.40
2018-03-11T09:35:20.673Z,61.20
2018-03-11T09:37:54.253Z,60.50
2018-03-11T09:40:27.986Z,59.50
2018-03-11T09:43:01.876Z,57.30
2018-03-11T09:45:35.761Z,56.30
2018-03-11T09:48:09.554Z,54.30
2018-03-11T09:50:44.036Z,51.80
2018-03-11T09:53:17.734Z,51.80
2018-03-11T09:55:52.634Z,51.40
2018-03-11T09:58:26.452Z,51.00
2018-03-11T10:01:00.214Z,49.00
2018-03-11T10:03:34.015Z,48.20
2018-03-11T10:06:07.684Z,46.70
2018-03-11T10:08:41.541Z,46.70
2018-03-11T10:11:16.164Z,46.10
2018-03-11T10:13:49.986Z,46.10
2018-03-11T10:16:23.666Z,45.00
2018-03-11T10:18:57.432Z,43.20
2018-03-11T10:21:31.187Z,42.50
2018-03-11T10:24:04.986Z,42.90
2018-03-11T10:26:39.520Z,44.30
2018-03-11T10:29:13.936Z,46.60
2018-03-11T10:31:48.584Z,46.60
2018-03-11T10:34:23.129Z,47.70
2018-03-11T10:36:56.921Z,47.60
2018-03-11T10:39:30.914Z,48.50
2018-03-11T10:42:04.622Z,49.40
2018-03-11T10:44:39.151Z,50.30
2018-03-11T10:47:13.727Z,50.20
2018-03-11T10:49:47.618Z,50.20
2018-03-11T10:52:21.345Z,49.80
2018-03-11T10:54:55.761Z,49.80
2018-03-11T10:57:29.434Z,49.90
2018-03-11T11:00:03.164Z,49.40
2018-03-11T11:02:37.660Z,49.10
2018-03-11T11:05:11.324Z,49.10
2018-03-11T11:07:44.994Z,48.90
2018-03-11T11:10:18.805Z,47.60
2018-03-11T11:12:53.674Z,45.30
2018-03-11T11:15:27.252Z,44.30
2018-03-11T11:18:01.076Z,40.50
2018-03-11T11:20:34.674Z,41.40
2018-03-11T11:23:08.655Z,39.50
2018-03-11T11:25:44.291Z,39.60
2018-03-11T11:28:18.034Z,38.90
2018-03-11T11:30:51.761Z,38.10
2018-03-11T11:33:25.732Z,37.30
2018-03-11T11:35:59.747Z,37.90
2018-03-11T11:38:33.527Z,37.20
2018-03-11T11:41:07.336Z,37.60
2018-03-11T11:43:41.764Z,38.20
2018-03-11T11:46:16.243Z,39.00
2018-03-11T11:48:50.021Z,39.00
2018-03-11T11:51:23.758Z,39.30
2018-03-11T11:53:58.361Z,40.90
2018-03-11T11:56:32.053Z,40.90
2018-03-11T11:59:06.649Z,42.40
2018-03-11T12:01:41.933Z,42.40
2018-03-11T12:04:15.787Z,42.80
2018-03-11T12:06:49.531Z,43.00
2018-03-11T12:09:23.289Z,43.00
2018-03-11T12:11:58.420Z,43.20
2018-03-11T12:14:32.253Z,43.10
2018-03-11T12:17:06.089Z,42.70
2018-03-11T12:19:39.832Z,42.80
2018-03-11T12:22:14.532Z,42.10
2018-03-11T12:24:48.938Z,41.90
2018-03-11T12:27:22.685Z,42.00
2018-03-11T12:29:56.372Z,41.70
2018-03-11T12:32:30.194Z,41.70
2018-03-11T12:35:04.042Z,41.30
2018-03-11T12:37:38.652Z,41.90
2018-03-11T12:40:12.400Z,41.60
2018-03-11T12:42:47.083Z,41.50
2018-03-11T12:45:20.953Z,41.50
2018-03-11T12:47:54.751Z,41.30
2018-03-11T12:50:28.580Z,41.10
2018-03-11T12:53:03.226Z,42.00
2018-03-11T12:55:36.935Z,42.40
2018-03-11T12:58:10.626Z,44.40
2018-03-11T13:00:44.626Z,44.70
2018-03-11T13:03:18.420Z,46.70
2018-03-11T13:05:52.176Z,45.30
2018-03-11T13:08:26.057Z,48.00
2018-03-11T13:11:00.609Z,49.40
2018-03-11T13:13:34.386Z,49.20
2018-03-11T13:16:08.243Z,49.10
2018-03-11T13:18:42.017Z,48.60
2018-03-11T13:21:17.443Z,48.70
2018-03-11T13:23:51.213Z,48.70
2018-03-11T13:26:25.046Z,50.60
2018-03-11T13:28:58.861Z,52.40
2018-03-11T13:31:33.595Z,50.30
2018-03-11T13:34:19.088Z,49.90
2018-03-11T13:36:52.901Z,48.10
2018-03-11T13:39:38.546Z,49.30
2018-03-11T13:42:12.421Z,49.20
2018-03-11T13:44:46.197Z,47.10
2018-03-11T13:47:19.903Z,46.80
2018-03-11T13:49:53.628Z,48.30
2018-03-11T13:52:39.256Z,49.10
2018-03-11T13:55:13.318Z,50.10
2018-03-11T13:58:09.171Z,49.10
2018-03-11T14:00:43.086Z,49.00
2018-03-11T14:03:16.893Z,49.50
2018-03-11T14:05:50.584Z,48.70
2018-03-11T14:08:24.351Z,48.50
2018-03-11T14:10:58.299Z,46.80
2018-03-11T14:13:32.054Z,47.60
2018-03-11T14:16:05.825Z,47.10
2018-03-11T14:18:39.632Z,48.80
2018-03-11T14:21:14.397Z,45.80
2018-03-11T14:23:48.196Z,45.70
2018-03-11T14:26:21.956Z,44.40
2018-03-11T14:28:55.707Z,42.30
2018-03-11T14:31:29.822Z,41.60
2018-03-11T14:34:03.633Z,41.20
2018-03-11T14:36:38.298Z,41.40
2018-03-11T14:39:12.062Z,41.40
2018-03-11T14:41:45.870Z,43.10
2018-03-11T14:44:19.885Z,45.90
2018-03-11T14:46:55.555Z,46.70
2018-03-11T14:49:29.303Z,47.90
2018-03-11T14:52:03.186Z,49.40
2018-03-11T14:54:37.733Z,48.90
2018-03-11T14:57:11.615Z,48.90
2018-03-11T14:59:45.382Z,49.40
2018-03-11T15:02:19.145Z,49.70
2018-03-11T15:04:53.783Z,51.20
2018-03-11T15:07:27.642Z,51.20
2018-03-11T15:10:01.399Z,51.50
2018-03-11T15:12:35.882Z,51.40
2018-03-11T15:15:09.687Z,51.40
2018-03-11T15:17:43.537Z,51.40
2018-03-11T15:20:17.366Z,51.40
2018-03-11T15:22:51.182Z,51.10
2018-03-11T15:25:25.024Z,51.00
2018-03-11T15:27:58.733Z,50.60
2018-03-11T15:30:32.623Z,51.50
2018-03-11T15:33:06.409Z,51.20
2018-03-11T15:35:40.140Z,51.10
2018-03-11T15:38:13.915Z,51.70
2018-03-11T15:40:47.969Z,51.50
2018-03-11T15:43:21.725Z,52.10
2018-03-11T15:45:56.611Z,52.20
2018-03-11T15:48:30.374Z,52.50
2018-03-11T15:51:04.006Z,53.00
2018-03-11T15:53:37.883Z,53.50
2018-03-11T15:56:12.399Z,53.80
2018-03-11T15:58:49.191Z,53.80
2018-03-11T16:01:26.512Z,54.80
2018-03-11T16:04:00.967Z,54.80
2018-03-11T16:06:36.957Z,52.30
2018-03-11T16:09:11.574Z,52.30
2018-03-11T16:11:46.002Z,47.10
2018-03-11T16:14:20.437Z,44.50
2018-03-11T16:17:03.570Z,44.50
2018-03-11T16:19:41.372Z,46.00
2018-03-11T16:22:15.221Z,46.90
2018-03-11T16:24:54.390Z,48.50
2018-03-11T16:27:29.187Z,50.10
2018-03-11T16:30:02.998Z,52.10
2018-03-11T16:32:39.096Z,53.60
2018-03-11T16:35:14.637Z,54.80
2018-03-11T16:37:49.453Z,55.80
2018-03-11T16:40:23.462Z,57.30
2018-03-11T16:45:58.478Z,60.10
2018-03-11T16:48:33.639Z,61.30
2018-03-11T16:51:07.415Z,61.80
2018-03-11T16:53:43.110Z,63.00
2018-03-11T16:56:16.861Z,64.70
2018-03-11T16:58:52.573Z,66.20
2018-03-11T17:01:27.429Z,67.20
2018-03-11T17:04:03.678Z,68.70
2018-03-11T17:06:37.237Z,70.10
2018-03-11T17:09:14.900Z,71.60
2018-03-11T17:14:36.485Z,75.00
2018-03-11T17:17:10.728Z,76.60
2018-03-11T17:19:45.181Z,79.90
2018-03-11T17:22:19.813Z,79.80
2018-03-11T17:24:53.588Z,79.80
2018-03-11T17:27:27.361Z,80.90
2018-03-11T17:30:01.225Z,83.00
2018-03-11T17:32:35.085Z,84.00
2018-03-11T17:35:08.780Z,84.60
2018-03-11T17:37:42.440Z,85.90
2018-03-11T17:40:17.012Z,88.00
2018-03-11T17:42:51.486Z,87.90
2018-03-11T17:45:25.112Z,88.40
2018-03-11T17:47:59.643Z,90.30
2018-03-11T17:50:33.396Z,90.30
2018-03-11T17:53:07.224Z,90.50
2018-03-11T17:55:41.014Z,91.10
2018-03-11T17:58:15.710Z,91.60
2018-03-11T18:00:49.500Z,91.60
2018-03-11T18:03:23.301Z,91.80
2018-03-11T18:05:57.551Z,91.80
2018-03-11T18:08:31.236Z,91.80
2018-03-11T18:11:05.030Z,91.50
2018-03-11T18:13:38.886Z,91.40
2018-03-11T18:16:12.696Z,91.10
2018-03-11T18:18:46.425Z,90.90
2018-03-11T18:21:20.219Z,90.70
2018-03-11T18:23:53.971Z,90.70
2018-03-11T18:26:27.756Z,90.90
2018-03-11T18:29:01.478Z,90.60
2018-03-11T18:31:35.304Z,90.40
2018-03-11T18:34:11.420Z,90.80
2018-03-11T18:36:45.297Z,91.30
2018-03-11T18:39:18.997Z,91.60
2018-03-11T18:41:52.857Z,91.90
2018-03-11T18:44:26.804Z,92.20
2018-03-11T18:47:00.702Z,92.50
2018-03-11T18:49:35.443Z,92.70
2018-03-11T18:52:09.318Z,92.70
2018-03-11T18:54:43.641Z,92.70
2018-03-11T18:57:17.361Z,92.70
2018-03-11T18:59:53.849Z,93.00
2018-03-11T19:02:27.669Z,93.20
2018-03-11T19:05:01.570Z,93.40
2018-03-11T19:07:36.330Z,93.50
2018-03-11T19:10:11.454Z,93.50
2018-03-11T19:12:45.138Z,93.50
2018-03-11T19:15:18.962Z,93.00
2018-03-11T19:17:52.718Z,92.90
2018-03-11T19:20:26.497Z,92.80
2018-03-11T19:23:01.564Z,92.80
2018-03-11T19:25:35.459Z,92.80
2018-03-11T19:28:10.052Z,92.70
2018-03-11T19:30:43.836Z,92.60
2018-03-11T19:33:17.676Z,92.00
2018-03-11T19:35:51.421Z,91.70
2018-03-11T19:38:25.291Z,91.00
2018-03-11T19:40:59.109Z,90.60
2018-03-11T19:43:33.804Z,89.70
2018-03-11T19:46:07.982Z,87.90
2018-03-11T19:48:41.813Z,87.90
2018-03-11T19:51:15.547Z,86.00
2018-03-11T19:53:49.393Z,84.40
2018-03-11T19:56:23.360Z,83.10
2018-03-11T19:58:57.209Z,82.20
2018-03-11T20:01:30.962Z,81.30
2018-03-11T20:04:04.761Z,79.60
2018-03-11T20:06:38.461Z,79.40
2018-03-11T20:09:12.337Z,78.70
2018-03-11T20:11:46.146Z,78.80
2018-03-11T20:14:20.122Z,78.20
2018-03-11T20:16:55.690Z,79.90
2018-03-11T20:19:29.755Z,79.20
2018-03-11T20:22:04.510Z,78.50
2018-03-11T20:24:38.761Z,78.90
2018-03-11T20:27:14.802Z,78.50
2018-03-11T20:29:48.569Z,78.40
2018-03-11T20:32:22.229Z,78.40
2018-03-11T20:34:57.669Z,78.40
2018-03-11T20:37:31.312Z,78.30
2018-03-11T20:40:05.004Z,79.00
2018-03-11T20:42:38.797Z,79.10
2018-03-11T20:45:12.541Z,79.20
2018-03-11T20:47:46.141Z,79.10
2018-03-11T20:50:20.807Z,79.10
2018-03-11T20:52:54.544Z,79.80
2018-03-11T20:55:28.155Z,80.30
2018-03-11T20:58:01.850Z,80.80
2018-03-11T21:00:35.590Z,81.30
2018-03-11T21:03:10.062Z,81.70
2018-03-11T21:05:43.624Z,81.80
2018-03-11T21:08:17.817Z,81.70
2018-03-11T21:10:51.673Z,82.50
2018-03-11T21:13:25.516Z,83.20
2018-03-11T21:15:59.947Z,84.70
2018-03-11T21:18:33.780Z,84.60
2018-03-11T21:21:07.649Z,85.40
2018-03-11T21:23:41.524Z,86.10
2018-03-11T21:26:15.308Z,86.50
2018-03-11T21:28:49.184Z,87.10
2018-03-11T21:31:22.997Z,87.10
2018-03-11T21:33:56.782Z,87.10
2018-03-11T21:36:30.796Z,87.60
2018-03-11T21:39:06.443Z,88.00
2018-03-11T21:41:40.203Z,88.00
2018-03-11T21:44:14.806Z,88.80
2018-03-11T21:46:48.674Z,88.70
2018-03-11T21:49:26.028Z,89.70
2018-03-11T21:52:00.022Z,89.70
2018-03-11T21:54:33.751Z,90.00
2018-03-11T21:57:07.659Z,89.90
2018-03-11T21:59:41.438Z,90.10
2018-03-11T22:02:19.507Z,90.40
2018-03-11T22:04:54.054Z,90.80
2018-03-11T22:07:28.547Z,91.10
2018-03-11T22:10:02.340Z,91.10
2018-03-11T22:12:36.897Z,91.50
2018-03-11T22:15:11.566Z,91.50
2018-03-11T22:17:45.431Z,91.80
2018-03-11T22:20:20.207Z,92.10
2018-03-11T22:22:53.908Z,92.10
2018-03-11T22:25:28.513Z,92.70
2018-03-11T22:28:03.777Z,93.50
2018-03-11T22:30:38.402Z,93.50
2018-03-11T22:33:12.756Z,94.00
2018-03-11T22:35:46.503Z,94.80
2018-03-11T22:38:20.400Z,95.40
2018-03-11T22:40:54.065Z,95.50
2018-03-11T22:43:27.973Z,96.00
2018-03-11T22:46:01.765Z,96.30
2018-03-11T22:48:35.651Z,96.40
2018-03-11T22:51:11.190Z,96.60
2018-03-11T22:53:44.989Z,96.90
2018-03-11T22:56:18.842Z,97.10
2018-03-11T22:58:52.545Z,97.40
2018-03-11T23:01:27.256Z,97.50
2018-03-11T23:04:01.254Z,97.50
2018-03-11T23:06:36.499Z,97.50
2018-03-11T23:09:10.701Z,97.60
2018-03-11T23:11:44.751Z,97.70
2018-03-11T23:14:18.522Z,98.00
2018-03-11T23:16:53.235Z,97.70
2018-03-11T23:19:27.770Z,97.60
2018-03-11T23:22:01.426Z,97.60
2018-03-11T23:24:36.039Z,97.60
2018-03-11T23:27:11.274Z,97.60
2018-03-11T23:29:45.070Z,97.60
2018-03-11T23:32:18.793Z,97.50
2018-03-11T23:34:52.982Z,97.50
2018-03-11T23:37:26.574Z,97.50
2018-03-11T23:40:00.274Z,97.70
2018-03-11T23:42:34.124Z,97.90
2018-03-11T23:45:08.054Z,98.00
2018-03-11T23:47:41.789Z,98.00
2018-03-11T23:50:15.635Z,98.20
2018-03-11T23:52:50.442Z,98.20
2018-03-11T23:55:24.170Z,98.20
2018-03-11T23:57:58.294Z,98.20
